createdAt,value
2023-02-18T00:00:56.673Z,101252.56
2023-02-18T00:04:00.274Z,101267.28
2023-02-18T00:07:02.864Z,101254.09
2023-02-18T00:10:09.309Z,101256.72
2023-02-18T00:13:11.928Z,101263.78
2023-02-18T00:16:14.563Z,101266.53
2023-02-18T00:19:18.981Z,101248.81
2023-02-18T00:22:21.567Z,101253.22
2023-02-18T00:25:25.545Z,101249.59
2023-02-18T00:28:28.143Z,101260.31
2023-02-18T00:31:33.482Z,101270.97
2023-02-18T00:34:36.114Z,101274.44
2023-02-18T00:37:38.691Z,101274.31
2023-02-18T00:40:43.249Z,101276.97
2023-02-18T00:43:45.962Z,101265.31
2023-02-18T00:46:49.688Z,101274.63
2023-02-18T00:49:52.392Z,101278.06
2023-02-18T00:52:55.008Z,101276.19
2023-02-18T00:55:59.425Z,101268.63
2023-02-18T00:59:02.067Z,101283.53
2023-02-18T01:02:04.747Z,101280.81
2023-02-18T01:05:07.424Z,101280.13
2023-02-18T01:08:11.736Z,101284.44
2023-02-18T01:11:15.866Z,101291.31
2023-02-18T01:14:18.491Z,101281.41
2023-02-18T01:17:21.093Z,101287.72
2023-02-18T01:20:24.028Z,101284.09
2023-02-18T01:23:26.692Z,101287.78
2023-02-18T01:26:30.692Z,101286.97
2023-02-18T01:29:33.272Z,101290.38
2023-02-18T01:32:35.878Z,101282.47
2023-02-18T01:35:39.666Z,101282.47
2023-02-18T01:38:42.629Z,101282.53
2023-02-18T01:41:46.605Z,101287.94
2023-02-18T01:44:50.431Z,101273.91
2023-02-18T01:47:53.282Z,101284.22
2023-02-18T01:51:03.157Z,101281.56
2023-02-18T01:54:09.286Z,101275.78
2023-02-18T01:57:15.712Z,101277.50
2023-02-18T02:00:21.496Z,101265.50
2023-02-18T02:03:24.085Z,101271.47
2023-02-18T02:06:27.214Z,101268.91
2023-02-18T02:09:31.998Z,101260.25
2023-02-18T02:12:48.588Z,101258.66
2023-02-18T02:15:56.160Z,101262.03
2023-02-18T02:19:10.153Z,101268.13
2023-02-18T02:22:49.084Z,101262.53
2023-02-18T02:26:17.751Z,101266.50
2023-02-18T02:29:47.572Z,101258.53
2023-02-18T02:33:15.224Z,101259.44
2023-02-18T02:36:24.923Z,101257.88
2023-02-18T02:39:33.917Z,101255.22
2023-02-18T02:42:47.840Z,101250.47
2023-02-18T02:45:56.529Z,101234.22
2023-02-18T02:49:04.749Z,101239.56
2023-02-18T02:52:12.495Z,101228.03
2023-02-18T02:55:15.142Z,101225.91
2023-02-18T02:58:19.509Z,101227.00
2023-02-18T03:01:35.084Z,101229.66
2023-02-18T03:04:55.440Z,101221.00
2023-02-18T03:08:10.230Z,101222.53
2023-02-18T03:11:15.550Z,101219.06
2023-02-18T03:14:28.713Z,101215.53
2023-02-18T03:17:35.935Z,101226.75
2023-02-18T03:20:42.147Z,101226.81
2023-02-18T03:23:54.788Z,101233.63
2023-02-18T03:27:01.801Z,101223.28
2023-02-18T03:30:08.530Z,101216.88
2023-02-18T03:33:13.912Z,101224.66
2023-02-18T03:36:16.920Z,101212.53
2023-02-18T03:39:24.214Z,101223.09
2023-02-18T03:42:28.430Z,101212.63
2023-02-18T03:45:31.056Z,101221.16
2023-02-18T03:48:33.643Z,101217.97
2023-02-18T03:51:36.244Z,101225.75
2023-02-18T03:54:40.252Z,101240.53
2023-02-18T03:57:42.856Z,101238.91
2023-02-18T04:00:45.429Z,101239.81
2023-02-18T04:03:48.032Z,101235.97
2023-02-18T04:06:50.610Z,101235.34
2023-02-18T04:09:54.718Z,101228.03
2023-02-18T04:12:57.283Z,101236.06
2023-02-18T04:15:59.884Z,101237.69
2023-02-18T04:19:02.471Z,101235.97
2023-02-18T04:22:05.051Z,101219.31
2023-02-18T04:25:09.730Z,101219.34
2023-02-18T04:28:15.274Z,101210.63
2023-02-18T04:31:18.276Z,101207.03
2023-02-18T04:34:21.156Z,101207.28
2023-02-18T04:37:23.750Z,101192.13
2023-02-18T04:40:30.505Z,101191.72
2023-02-18T04:43:33.126Z,101187.41
2023-02-18T04:46:35.739Z,101172.34
2023-02-18T04:49:38.530Z,101178.06
2023-02-18T04:52:41.091Z,101174.75
2023-02-18T04:55:45.044Z,101172.75
2023-02-18T04:58:47.886Z,101171.09
2023-02-18T05:01:50.511Z,101168.38
2023-02-18T05:04:53.113Z,101174.41
2023-02-18T05:07:55.688Z,101168.53
2023-02-18T05:10:59.693Z,101177.81
2023-02-18T05:14:02.382Z,101169.47
2023-02-18T05:17:05.009Z,101158.00
2023-02-18T05:20:09.997Z,101167.56
2023-02-18T05:23:12.724Z,101149.91
2023-02-18T05:26:16.659Z,101160.31
2023-02-18T05:29:19.253Z,101144.88
2023-02-18T05:32:21.822Z,101148.06
2023-02-18T05:35:24.437Z,101143.03
2023-02-18T05:38:27.073Z,101147.13
2023-02-18T05:41:31.059Z,101142.28
2023-02-18T05:44:33.831Z,101139.97
2023-02-18T05:47:36.421Z,101141.06
2023-02-18T05:50:39.118Z,101129.56
2023-02-18T05:53:41.700Z,101134.56
2023-02-18T05:56:45.650Z,101119.56
2023-02-18T05:59:48.292Z,101118.38
2023-02-18T06:02:50.884Z,101116.97
2023-02-18T06:05:54.029Z,101129.94
2023-02-18T06:08:56.700Z,101127.09
2023-02-18T06:12:00.645Z,101120.13
2023-02-18T06:15:03.232Z,101115.97
2023-02-18T06:18:06.341Z,101094.81
2023-02-18T06:21:09.048Z,101110.94
2023-02-18T06:24:11.757Z,101113.09
2023-02-18T06:27:15.686Z,101098.63
2023-02-18T06:30:18.661Z,101087.13
2023-02-18T06:33:21.279Z,101076.47
2023-02-18T06:36:23.864Z,101066.78
2023-02-18T06:39:26.453Z,101063.84
2023-02-18T06:42:30.415Z,101050.22
2023-02-18T06:45:32.995Z,101058.94
2023-02-18T06:48:35.777Z,101060.75
2023-02-18T06:51:38.377Z,101041.75
2023-02-18T06:54:40.959Z,101042.66
2023-02-18T06:57:44.974Z,101028.19
2023-02-18T07:00:47.648Z,101021.47
2023-02-18T07:03:50.445Z,101023.59
2023-02-18T07:06:53.180Z,101021.00
2023-02-18T07:09:55.794Z,101006.53
2023-02-18T07:12:59.736Z,101002.03
2023-02-18T07:16:02.352Z,101001.25
2023-02-18T07:19:05.002Z,100986.75
2023-02-18T07:22:07.619Z,100982.63
2023-02-18T07:25:10.220Z,100985.19
2023-02-18T07:28:14.403Z,100984.41
2023-02-18T07:31:17.684Z,100990.88
2023-02-18T07:34:20.355Z,100982.22
2023-02-18T07:37:22.990Z,100957.50
2023-02-18T07:40:25.605Z,100950.06
2023-02-18T07:43:29.597Z,100934.09
2023-02-18T07:46:32.209Z,100916.22
2023-02-18T07:49:35.639Z,100916.00
2023-02-18T07:52:38.248Z,100913.44
2023-02-18T07:55:52.717Z,100909.50
2023-02-18T07:58:56.626Z,100913.81
2023-02-18T08:01:59.197Z,100908.31
2023-02-18T08:05:01.813Z,100887.06
2023-02-18T08:08:04.749Z,100871.19
2023-02-18T08:11:18.377Z,100856.47
2023-02-18T08:14:23.051Z,100847.66
2023-02-18T08:17:25.734Z,100848.84
2023-02-18T08:20:30.496Z,100841.22
2023-02-18T08:23:33.410Z,100837.22
2023-02-18T08:26:36.048Z,100835.81
2023-02-18T08:29:39.978Z,100853.34
2023-02-18T08:32:42.581Z,100848.44
2023-02-18T08:35:45.771Z,100845.22
2023-02-18T08:38:48.349Z,100839.38
2023-02-18T08:41:50.949Z,100826.31
2023-02-18T08:44:54.897Z,100815.28
2023-02-18T08:48:18.158Z,100807.75
2023-02-18T08:51:23.153Z,100803.91
2023-02-18T08:54:25.810Z,100807.97
2023-02-18T08:57:29.033Z,100806.22
2023-02-18T09:00:33.801Z,100791.31
2023-02-18T09:03:36.833Z,100786.66
2023-02-18T09:06:39.804Z,100783.34
2023-02-18T09:09:42.903Z,100772.56
2023-02-18T09:12:45.563Z,100756.59
2023-02-18T09:15:57.568Z,100739.00
2023-02-18T09:19:00.173Z,100720.31
2023-02-18T09:22:02.795Z,100709.72
2023-02-18T09:25:07.272Z,100705.53
2023-02-18T09:28:09.853Z,100691.63
2023-02-18T09:31:16.142Z,100688.00
2023-02-18T09:34:18.846Z,100687.06
2023-02-18T09:37:21.420Z,100693.47
2023-02-18T09:40:30.004Z,100689.81
2023-02-18T09:43:37.428Z,100677.53
2023-02-18T09:46:47.575Z,100667.44
2023-02-18T09:49:54.086Z,100661.31
2023-02-18T09:52:59.447Z,100650.34
2023-02-18T09:56:02.914Z,100659.44
2023-02-18T09:59:09.972Z,100653.28
2023-02-18T10:02:17.430Z,100629.88
2023-02-18T10:05:20.508Z,100635.03
2023-02-18T10:08:26.824Z,100640.94
2023-02-18T10:11:32.224Z,100614.81
2023-02-18T10:14:35.888Z,100562.41
2023-02-18T10:17:40.048Z,100604.25
2023-02-18T10:20:42.880Z,100608.81
2023-02-18T10:23:54.091Z,100587.03
2023-02-18T10:26:57.596Z,100596.72
2023-02-18T10:30:10.890Z,100572.97
2023-02-18T10:33:32.362Z,100591.31
2023-02-18T10:36:38.825Z,100589.16
2023-02-18T10:39:53.670Z,100578.91
2023-02-18T10:43:07.166Z,100574.00
2023-02-18T10:46:22.997Z,100569.72
2023-02-18T10:49:43.199Z,100561.41
2023-02-18T10:52:50.059Z,100557.84
2023-02-18T10:55:54.475Z,100548.88
2023-02-18T10:59:02.734Z,100541.06
2023-02-18T11:02:14.880Z,100535.03
2023-02-18T11:05:25.806Z,100526.69
2023-02-18T11:08:30.679Z,100524.69
2023-02-18T11:11:35.984Z,100520.88
2023-02-18T11:14:42.572Z,100516.00
2023-02-18T11:17:47.453Z,100507.28
2023-02-18T11:20:57.816Z,100496.69
2023-02-18T11:24:11.096Z,100490.31
2023-02-18T11:27:22.040Z,100488.31
2023-02-18T11:30:27.805Z,100494.75
2023-02-18T11:33:35.568Z,100469.78
2023-02-18T11:36:39.975Z,100460.53
2023-02-18T11:39:45.502Z,100459.66
2023-02-18T11:42:48.452Z,100457.97
2023-02-18T11:46:09.706Z,100454.44
2023-02-18T11:49:23.160Z,100455.78
2023-02-18T11:52:29.833Z,100437.78
2023-02-18T11:55:32.779Z,100451.88
2023-02-18T11:58:41.505Z,100446.81
2023-02-18T12:01:47.905Z,100457.78
2023-02-18T12:04:55.626Z,100461.75
2023-02-18T12:08:04.816Z,100459.91
2023-02-18T12:11:13.889Z,100486.50
2023-02-18T12:14:19.677Z,100484.72
2023-02-18T12:17:43.325Z,100488.22
2023-02-18T12:21:05.131Z,100502.03
2023-02-18T12:24:25.252Z,100498.31
2023-02-18T12:27:36.277Z,100487.13
2023-02-18T12:31:00.535Z,100500.94
2023-02-18T12:34:19.956Z,100510.50
2023-02-18T12:37:44.483Z,100508.03
2023-02-18T12:41:09.828Z,100511.88
2023-02-18T12:44:35.300Z,100514.00
2023-02-18T12:47:50.846Z,100516.94
2023-02-18T12:51:10.767Z,100519.28
2023-02-18T12:54:28.799Z,100523.91
2023-02-18T12:57:40.261Z,100527.59
2023-02-18T13:00:58.200Z,100529.38
2023-02-18T13:04:24.808Z,100538.25
2023-02-18T13:07:51.943Z,100546.13
2023-02-18T13:11:15.985Z,100546.13
2023-02-18T13:14:23.385Z,100538.59
2023-02-18T13:17:29.543Z,100556.22
2023-02-18T13:20:37.776Z,100562.50
2023-02-18T13:23:46.277Z,100554.94
2023-02-18T13:26:54.273Z,100579.38
2023-02-18T13:30:11.533Z,100573.00
2023-02-18T13:33:21.989Z,100572.91
2023-02-18T13:36:37.076Z,100571.00
2023-02-18T13:39:48.392Z,100588.50
2023-02-18T13:42:53.087Z,100596.22
2023-02-18T13:46:11.547Z,100604.00
2023-02-18T13:49:14.682Z,100593.34
2023-02-18T13:52:21.144Z,100605.59
2023-02-18T13:55:28.478Z,100606.47
2023-02-18T13:58:37.388Z,100601.16
2023-02-18T14:01:44.544Z,100614.69
2023-02-18T14:04:54.488Z,100612.16
2023-02-18T14:08:12.159Z,100627.47
2023-02-18T14:11:42.430Z,100610.44
2023-02-18T14:14:45.187Z,100621.09
2023-02-18T14:17:51.003Z,100636.78
2023-02-18T14:21:04.589Z,100625.25
2023-02-18T14:24:10.249Z,100644.38
2023-02-18T14:27:18.048Z,100649.56
2023-02-18T14:30:26.700Z,100660.28
2023-02-18T14:33:32.750Z,100663.25
2023-02-18T14:36:42.539Z,100691.09
2023-02-18T14:39:55.700Z,100697.69
2023-02-18T14:43:08.353Z,100703.72
2023-02-18T14:46:20.829Z,100723.22
2023-02-18T14:49:38.377Z,100726.94
2023-02-18T14:52:44.356Z,100719.06
2023-02-18T14:55:50.026Z,100725.63
2023-02-18T14:58:57.812Z,100731.00
2023-02-18T15:02:00.392Z,100735.28
2023-02-18T15:05:19.195Z,100739.47
2023-02-18T15:08:23.458Z,100736.22
2023-02-18T15:11:36.577Z,100742.56
2023-02-18T15:14:41.444Z,100749.50
2023-02-18T15:17:49.135Z,100764.94
2023-02-18T15:20:53.514Z,100770.47
2023-02-18T15:23:59.280Z,100779.63
2023-02-18T15:27:04.046Z,100774.81
2023-02-18T15:30:21.232Z,100795.28
2023-02-18T15:33:24.155Z,100807.22
2023-02-18T15:36:28.343Z,100817.72
2023-02-18T15:39:32.431Z,100834.47
2023-02-18T15:42:38.312Z,100829.09
2023-02-18T15:45:44.162Z,100842.94
2023-02-18T15:48:51.239Z,100848.75
2023-02-18T15:51:58.892Z,100855.66
2023-02-18T15:55:04.109Z,100862.34
2023-02-18T15:58:10.468Z,100859.19
2023-02-18T16:01:27.668Z,100863.66
2023-02-18T16:04:34.561Z,100859.22
2023-02-18T16:07:53.033Z,100863.94
2023-02-18T16:10:58.404Z,100871.66
2023-02-18T16:14:01.298Z,100878.50
2023-02-18T16:17:16.509Z,100878.94
2023-02-18T16:20:27.723Z,100882.50
2023-02-18T16:23:43.463Z,100897.25
2023-02-18T16:26:47.640Z,100903.50
2023-02-18T16:29:52.455Z,100906.19
2023-02-18T16:32:55.722Z,100908.84
2023-02-18T16:35:58.498Z,100922.19
2023-02-18T16:39:02.650Z,100928.13
2023-02-18T16:42:11.174Z,100930.81
2023-02-18T16:45:14.226Z,100926.91
2023-02-18T16:48:20.553Z,100928.56
2023-02-18T16:51:27.623Z,100933.81
2023-02-18T16:54:31.635Z,100940.00
2023-02-18T16:57:34.847Z,100929.28
2023-02-18T17:00:38.357Z,100941.78
2023-02-18T17:03:41.108Z,100948.06
2023-02-18T17:06:45.157Z,100938.63
2023-02-18T17:09:49.145Z,100950.41
2023-02-18T17:12:51.942Z,100953.34
2023-02-18T17:15:56.717Z,100959.69
2023-02-18T17:18:59.459Z,100968.63
2023-02-18T17:22:02.129Z,100978.38
2023-02-18T17:25:13.022Z,100991.22
2023-02-18T17:28:18.944Z,100988.72
2023-02-18T17:31:26.083Z,100997.63
2023-02-18T17:34:30.865Z,101005.38
2023-02-18T17:37:33.807Z,101009.69
2023-02-18T17:40:37.844Z,101010.75
2023-02-18T17:43:40.885Z,101022.22
2023-02-18T17:46:44.063Z,101022.28
2023-02-18T17:49:46.731Z,101025.84
2023-02-18T17:52:49.432Z,101020.75
2023-02-18T17:55:53.954Z,101032.66
2023-02-18T17:58:56.714Z,101032.69
2023-02-18T18:01:59.411Z,101038.72
2023-02-18T18:05:02.118Z,101038.69
2023-02-18T18:08:06.118Z,101044.94
2023-02-18T18:11:15.102Z,101039.50
2023-02-18T18:14:17.755Z,101047.38
2023-02-18T18:17:20.410Z,101058.59
2023-02-18T18:20:24.269Z,101060.13
2023-02-18T18:23:28.617Z,101060.38
2023-02-18T18:26:32.756Z,101067.88
2023-02-18T18:29:35.458Z,101072.06
2023-02-18T18:32:38.203Z,101080.03
2023-02-18T18:35:40.972Z,101077.06
2023-02-18T18:38:43.895Z,101086.44
2023-02-18T18:41:48.063Z,101089.00
2023-02-18T18:44:50.816Z,101091.50
2023-02-18T18:47:54.278Z,101090.94
2023-02-18T18:51:00.556Z,101098.81
2023-02-18T18:54:03.289Z,101102.91
2023-02-18T18:57:07.998Z,101112.09
2023-02-18T19:00:12.194Z,101111.47
2023-02-18T19:03:15.053Z,101114.16
2023-02-18T19:06:18.406Z,101118.59
2023-02-18T19:09:21.092Z,101116.66
2023-02-18T19:12:25.116Z,101124.22
2023-02-18T19:15:28.002Z,101126.13
2023-02-18T19:18:33.447Z,101125.28
2023-02-18T19:21:36.107Z,101131.16
2023-02-18T19:24:38.791Z,101132.97
2023-02-18T19:27:44.960Z,101135.25
2023-02-18T19:30:47.666Z,101133.19
2023-02-18T19:33:51.494Z,101139.19
2023-02-18T19:36:55.324Z,101133.09
2023-02-18T19:39:57.993Z,101142.66
2023-02-18T19:43:02.041Z,101146.31
2023-02-18T19:46:09.409Z,101149.22
2023-02-18T19:49:12.169Z,101149.88
2023-02-18T19:52:14.822Z,101144.00
2023-02-18T19:55:17.776Z,101148.19
2023-02-18T19:58:21.834Z,101153.25
2023-02-18T20:01:24.550Z,101161.84
2023-02-18T20:04:27.182Z,101159.44
2023-02-18T20:07:31.177Z,101157.53
2023-02-18T20:10:34.054Z,101169.13
2023-02-18T20:13:38.152Z,101167.78
2023-02-18T20:16:41.173Z,101181.91
2023-02-18T20:19:43.863Z,101176.00
2023-02-18T20:22:46.663Z,101174.66
2023-02-18T20:25:49.362Z,101174.75
2023-02-18T20:28:53.393Z,101178.78
2023-02-18T20:31:56.298Z,101178.03
2023-02-18T20:34:59.030Z,101168.41
2023-02-18T20:38:01.734Z,101165.69
2023-02-18T20:41:05.519Z,101165.59
2023-02-18T20:44:09.990Z,101159.34
2023-02-18T20:47:13.892Z,101163.59
2023-02-18T20:50:16.922Z,101173.59
2023-02-18T20:53:19.603Z,101172.59
2023-02-18T20:56:23.038Z,101182.16
2023-02-18T20:59:29.384Z,101186.56
2023-02-18T21:02:32.071Z,101188.31
2023-02-18T21:05:34.849Z,101192.66
2023-02-18T21:08:40.764Z,101192.53
2023-02-18T21:11:44.768Z,101195.16
2023-02-18T21:14:48.849Z,101196.09
2023-02-18T21:17:51.540Z,101197.09
2023-02-18T21:20:54.223Z,101196.28
2023-02-18T21:23:56.913Z,101195.38
2023-02-18T21:26:59.667Z,101186.56
2023-02-18T21:30:04.195Z,101184.94
2023-02-18T21:33:07.916Z,101175.09
2023-02-18T21:36:13.184Z,101166.47
2023-02-18T21:39:16.956Z,101162.19
2023-02-18T21:42:19.632Z,101162.03
2023-02-18T21:45:23.798Z,101156.69
2023-02-18T21:48:43.940Z,101159.41
2023-02-18T21:51:57.533Z,101163.69
2023-02-18T21:55:00.268Z,101157.63
2023-02-18T21:58:02.955Z,101157.59
2023-02-18T22:01:07.221Z,101155.03
2023-02-18T22:04:09.969Z,101157.78
2023-02-18T22:07:13.161Z,101157.72
2023-02-18T22:10:16.083Z,101163.88
2023-02-18T22:13:18.785Z,101171.78
2023-02-18T22:16:23.191Z,101172.06
2023-02-18T22:19:26.352Z,101170.91
2023-02-18T22:22:29.070Z,101174.34
2023-02-18T22:25:31.728Z,101192.03
2023-02-18T22:28:34.962Z,101185.84
2023-02-18T22:31:39.945Z,101174.22
2023-02-18T22:34:42.885Z,101176.00
2023-02-18T22:37:45.524Z,101174.84
2023-02-18T22:40:50.692Z,101177.25
2023-02-18T22:43:55.840Z,101178.78
2023-02-18T22:46:59.876Z,101180.13
2023-02-18T22:50:02.843Z,101181.88
2023-02-18T22:53:05.513Z,101183.44
2023-02-18T22:56:10.506Z,101175.59
2023-02-18T22:59:14.098Z,101174.09
2023-02-18T23:02:18.159Z,101169.44
2023-02-18T23:05:20.937Z,101159.53
2023-02-18T23:08:23.602Z,101164.03
2023-02-18T23:11:26.818Z,101174.59
2023-02-18T23:14:30.447Z,101161.38
2023-02-18T23:17:34.507Z,101161.28
2023-02-18T23:20:54.860Z,101164.66
2023-02-18T23:23:57.692Z,101157.72
2023-02-18T23:27:00.410Z,101155.09
2023-02-18T23:30:03.209Z,101151.44
2023-02-18T23:33:07.299Z,101145.19
2023-02-18T23:36:12.246Z,101142.81
2023-02-18T23:39:18.559Z,101139.06
2023-02-18T23:42:21.212Z,101133.78
2023-02-18T23:45:24.191Z,101127.53
2023-02-18T23:49:23.097Z,101120.47
2023-02-18T23:52:27.140Z,101111.69
2023-02-18T23:55:29.782Z,101116.06
2023-02-18T23:58:32.967Z,101120.34
